Time;durP1;ratioP1;P1;durP2;ratioP2;P2;SDS_P1;SDS_P2;PMS_P1;PMS_P2;Temp;Humidity;BMP_temperature;BMP_pressure;BME280_temperature;BME280_humidity;BME280_pressure;Samples;Min_cycle;Max_cycle;Signal;HPM_P1;HPM_P2
2022/12/19 00:03:57;;;;;;;21.23;10.18;;;-0.20;56.40;;;-2.09;61.97;102590.63;12266373;19;20025;-81
2022/12/19 00:07:59;;;;;;;23.02;11.63;;;-0.30;56.30;;;-2.04;61.96;102579.69;12265823;19;20022;-81
2022/12/19 00:12:01;;;;;;;19.10;10.30;;;-0.20;56.40;;;-2.02;62.23;102569.50;12268919;19;20027;-81
2022/12/19 00:16:10;;;;;;;21.90;10.10;;;-0.20;56.40;;;-2.10;62.11;102551.38;12270351;19;20475;-81
2022/12/19 00:20:12;;;;;;;23.55;10.70;;;-0.20;56.40;;;-2.23;62.10;102522.03;12276381;19;20022;-81
2022/12/19 00:24:13;;;;;;;18.58;8.98;;;-0.20;56.50;;;-2.01;62.09;102560.97;12272401;19;20013;-81
2022/12/19 00:28:15;;;;;;;16.15;9.30;;;-0.20;56.50;;;-1.96;62.02;102556.84;12276117;19;20018;-81
2022/12/19 00:32:17;;;;;;;19.98;8.90;;;-0.20;56.50;;;-1.93;62.05;102554.38;12266911;19;20014;-81
2022/12/19 00:36:23;;;;;;;14.38;8.27;;;-0.20;56.50;;;-1.98;62.07;102537.16;12275498;19;20035;-81
2022/12/19 00:40:25;;;;;;;20.35;8.93;;;0.10;56.60;;;-1.87;62.29;102543.41;12270299;19;20592;-82
2022/12/19 00:44:27;;;;;;;17.95;9.02;;;-0.10;56.50;;;-1.94;62.28;102537.28;12270865;19;20014;-82
2022/12/19 00:48:30;;;;;;;19.40;8.52;;;-0.10;56.50;;;-1.97;62.09;102528.63;12266682;19;20353;-82
2022/12/19 00:52:32;;;;;;;14.05;8.07;;;-0.10;56.50;;;-1.94;62.25;102521.94;12269312;19;20023;-81
2022/12/19 00:56:36;;;;;;;16.15;8.00;;;0.20;56.60;;;-1.77;62.21;102558.19;12266645;19;20019;-81
2022/12/19 01:00:37;;;;;;;17.33;8.98;;;0.10;56.50;;;-1.79;62.14;102562.41;12267565;19;20022;-81
2022/12/19 01:04:39;;;;;;;20.38;9.95;;;0.20;56.60;;;-1.75;62.03;102543.75;12263959;19;20018;-81
2022/12/19 01:08:41;;;;;;;17.45;8.73;;;0.10;56.50;;;-1.73;62.07;102565.09;12263490;19;20335;-81
2022/12/19 01:12:46;;;;;;;15.05;8.00;;;0.10;56.50;;;-1.69;62.19;102573.75;12264856;19;20014;-81
2022/12/19 01:16:49;;;;;;;15.50;8.35;;;0.30;56.50;;;-1.72;62.09;102545.50;12261581;19;20012;-81
2022/12/19 01:20:53;;;;;;;17.63;9.82;;;0.40;56.60;;;-1.87;62.05;102487.94;12264391;19;20023;-81
2022/12/19 01:24:55;;;;;;;18.52;8.63;;;0.20;56.40;;;-1.80;62.05;102492.41;12261583;19;20334;-81
2022/12/19 01:28:57;;;;;;;16.15;8.27;;;0.10;56.20;;;-1.81;62.10;102495.81;12258814;19;20116;-81
2022/12/19 01:33:00;;;;;;;16.42;9.23;;;0.30;56.30;;;-1.82;62.21;102493.19;12265593;19;20018;-80
2022/12/19 01:37:02;;;;;;;16.63;7.95;;;0.10;56.30;;;-1.73;62.22;102502.78;12259110;19;20488;-81
2022/12/19 01:41:04;;;;;;;17.30;8.68;;;0.30;56.40;;;-1.70;62.16;102490.06;12260777;19;20658;-81
2022/12/19 01:45:09;;;;;;;26.25;11.95;;;0.10;56.40;;;-1.67;62.21;102477.34;12257075;19;20034;-81
2022/12/19 01:49:25;;;;;;;25.02;10.57;;;0.10;56.40;;;-2.03;62.16;102411.63;12255538;19;20442;-82
2022/12/19 01:53:36;;;;;;;14.43;8.55;;;0.10;56.40;;;-1.68;62.18;102455.97;12258477;19;20027;-81
2022/12/19 01:57:39;;;;;;;20.52;11.32;;;0.10;56.40;;;-1.66;62.18;102432.97;12257630;19;20107;-81
2022/12/19 02:01:41;;;;;;;22.45;11.15;;;0.30;56.60;;;-1.70;61.96;102420.91;12250646;19;20029;-81
2022/12/19 02:05:43;;;;;;;32.05;13.35;;;0.10;56.40;;;-1.69;62.25;102414.97;12253837;19;20066;-81
2022/12/19 02:09:50;;;;;;;23.30;12.30;;;0.10;56.40;;;-1.63;62.09;102420.22;12257127;19;20014;-81
2022/12/19 02:13:55;;;;;;;21.02;10.85;;;0.10;56.40;;;-1.58;62.19;102418.63;12255614;19;20014;-81
2022/12/19 02:18:31;;;;;;;25.05;12.00;;;0.10;56.40;;;-1.61;62.18;102408.31;12248966;19;20021;-81
2022/12/19 02:22:59;;;;;;;23.00;11.50;;;0.20;56.30;;;-1.61;62.19;102395.53;12257505;19;20018;-81
2022/12/19 02:27:37;;;;;;;20.38;11.10;;;0.20;56.30;;;-1.66;61.91;102379.19;12255443;19;20018;-81
2022/12/19 02:31:47;;;;;;;25.63;10.63;;;0.20;56.20;;;-1.70;62.05;102378.25;12256688;19;20007;-81
2022/12/19 02:36:04;;;;;;;27.80;14.32;;;0.40;56.30;;;-1.65;62.15;102375.78;12254474;19;20047;-82
2022/12/19 02:40:09;;;;;;;28.58;13.57;;;0.20;56.10;;;-1.58;62.04;102377.66;12255884;19;20023;-81
2022/12/19 02:44:24;;;;;;;26.08;12.95;;;0.10;56.10;;;-1.84;62.03;102333.53;12256601;19;20034;-81
2022/12/19 02:48:28;;;;;;;24.65;12.52;;;0.20;56.10;;;-1.54;62.13;102384.56;12252870;19;20028;-81
2022/12/19 02:52:29;;;;;;;25.35;11.82;;;0.20;56.00;;;-1.54;62.04;102383.69;12266900;19;20090;-82
2022/12/19 02:56:46;;;;;;;27.15;12.73;;;0.20;56.00;;;-1.53;62.13;102386.31;12265884;19;20361;-81
2022/12/19 03:01:38;;;;;;;26.45;12.73;;;0.20;56.00;;;-1.54;62.06;102371.75;12267884;19;20480;-80
2022/12/19 03:06:03;;;;;;;18.83;10.32;;;0.20;55.90;;;-1.52;62.09;102370.09;12262412;19;20373;-81
2022/12/19 03:10:30;;;;;;;22.08;12.18;;;0.30;56.00;;;-1.60;61.99;102357.13;12267453;19;20043;-81
2022/12/19 03:14:33;;;;;;;22.35;10.70;;;0.20;55.80;;;-1.58;62.06;102357.16;12266393;19;20018;-81
2022/12/19 03:18:35;;;;;;;21.48;10.27;;;0.30;55.90;;;-1.50;61.99;102375.25;12263702;19;20025;-81
2022/12/19 03:22:37;;;;;;;19.80;10.35;;;0.60;56.00;;;-1.57;62.14;102348.63;12264889;19;20006;-81
2022/12/19 03:27:08;;;;;;;23.83;12.07;;;0.30;55.90;;;-1.51;62.04;102364.16;12264579;19;20587;-80
2022/12/19 03:31:13;;;;;;;25.30;13.13;;;0.30;55.80;;;-1.63;61.94;102344.25;12266224;19;20022;-80
2022/12/19 03:35:27;;;;;;;25.98;12.32;;;0.50;55.90;;;-1.55;61.91;102339.28;12268821;19;20010;-81
2022/12/19 03:39:31;;;;;;;26.02;11.77;;;0.50;55.90;;;-1.48;62.11;102341.16;12267336;19;20018;-81
2022/12/19 03:43:35;;;;;;;27.25;13.13;;;0.30;55.80;;;-1.51;61.95;102341.09;12275749;19;20022;-81
2022/12/19 03:47:44;;;;;;;24.98;12.32;;;0.50;55.80;;;-1.52;62.07;102339.34;12277199;19;20011;-81
2022/12/19 03:52:15;;;;;;;24.38;12.25;;;0.30;55.80;;;-1.43;62.08;102346.34;12278896;19;20051;-81
2022/12/19 03:56:50;;;;;;;27.83;11.85;;;0.40;55.70;;;-1.42;61.93;102360.91;12279966;19;20013;-81
2022/12/19 04:00:54;;;;;;;28.95;12.77;;;0.40;55.80;;;-1.45;62.05;102340.38;12274444;19;20539;-81
2022/12/19 04:05:02;;;;;;;22.17;10.88;;;0.40;55.80;;;-1.44;61.96;102337.81;12272327;19;20017;-81
2022/12/19 04:09:04;;;;;;;22.90;11.23;;;0.40;55.80;;;-1.39;61.91;102338.78;12269534;19;20488;-81
2022/12/19 04:13:12;;;;;;;22.33;10.73;;;0.40;55.70;;;-1.64;62.05;102300.69;12272512;19;20015;-81
2022/12/19 04:17:41;;;;;;;18.77;10.05;;;0.50;55.80;;;-1.29;61.95;102355.22;12268331;19;20499;-80
2022/12/19 04:21:55;;;;;;;20.42;10.18;;;0.50;55.80;;;-1.37;61.92;102337.13;12272646;19;20030;-80
2022/12/19 04:26:02;;;;;;;19.13;9.73;;;0.50;55.80;;;-1.39;61.92;102320.84;12270742;19;20018;-80
2022/12/19 04:30:11;;;;;;;21.38;10.77;;;0.50;55.80;;;-1.35;61.92;102311.50;12270383;19;20493;-81
2022/12/19 04:34:19;;;;;;;19.35;11.15;;;0.50;55.60;;;-1.35;62.05;102320.09;12269552;19;20049;-80
2022/12/19 04:38:21;;;;;;;24.17;11.07;;;0.60;55.60;;;-1.31;61.98;102325.25;12265459;19;20537;-81
2022/12/19 04:42:23;;;;;;;20.77;10.13;;;0.50;55.60;;;-1.22;61.99;102345.94;12265329;19;20042;-80
2022/12/19 04:46:24;;;;;;;22.45;10.63;;;0.60;55.70;;;-1.16;61.98;102346.03;12262787;19;20476;-81
2022/12/19 04:50:26;;;;;;;23.33;11.93;;;0.60;55.60;;;-1.17;61.95;102344.31;12267234;19;20018;-80
2022/12/19 04:54:28;;;;;;;24.10;11.45;;;0.60;55.50;;;-1.14;61.90;102334.97;12268231;19;20033;-80
2022/12/19 04:58:30;;;;;;;25.23;11.93;;;0.60;55.50;;;-1.15;61.88;102329.84;12264668;19;20033;-81
2022/12/19 05:02:32;;;;;;;23.70;11.13;;;0.60;55.50;;;-1.12;61.95;102332.47;12259076;19;20778;-80
2022/12/19 05:06:33;;;;;;;21.10;11.15;;;0.60;55.50;;;-1.17;62.02;102311.88;12265258;19;20014;-80
2022/12/19 05:10:37;;;;;;;23.35;11.90;;;0.60;55.40;;;-1.11;61.99;102298.28;12262966;19;20018;-80
2022/12/19 05:14:38;;;;;;;18.23;10.00;;;0.70;55.50;;;-1.20;61.97;102281.06;12263724;19;20377;-80
2022/12/19 05:18:41;;;;;;;17.08;8.98;;;0.70;55.50;;;-1.20;61.79;102298.13;12258569;19;20014;-81
2022/12/19 05:22:43;;;;;;;22.23;11.20;;;0.90;55.60;;;-1.11;61.84;102311.09;12261006;19;20489;-80
2022/12/19 05:26:44;;;;;;;22.95;11.20;;;0.70;55.30;;;-1.15;61.97;102296.53;12257337;19;20066;-81
2022/12/19 05:30:46;;;;;;;24.23;11.82;;;0.80;55.40;;;-1.15;61.96;102296.53;12261530;19;20006;-80
2022/12/19 05:34:48;;;;;;;24.40;12.63;;;0.70;55.30;;;-1.06;61.93;102301.81;12258692;19;20007;-80
2022/12/19 05:38:50;;;;;;;22.75;11.50;;;0.70;55.10;;;-1.15;61.89;102281.16;12256232;19;20007;-80
2022/12/19 05:42:52;;;;;;;18.65;10.43;;;0.70;55.20;;;-1.18;61.89;102269.16;12257974;19;20018;-80
2022/12/19 05:46:54;;;;;;;19.85;10.05;;;1.00;55.40;;;-1.02;61.84;102288.22;12260426;19;20013;-80
2022/12/19 05:50:56;;;;;;;23.77;11.57;;;0.70;55.30;;;-1.02;61.81;102283.09;12259432;19;20035;-80
2022/12/19 05:54:57;;;;;;;22.52;11.30;;;0.80;55.30;;;-1.10;61.84;102266.72;12260651;19;20027;-80
2022/12/19 05:58:59;;;;;;;23.38;10.80;;;0.70;55.30;;;-0.95;61.86;102289.19;12256793;19;20003;-81
2022/12/19 06:03:00;;;;;;;24.13;11.73;;;1.00;55.40;;;-1.00;61.98;102272.84;12255220;19;20018;-81
2022/12/19 06:07:04;;;;;;;27.27;13.63;;;0.80;55.10;;;-1.05;61.75;102238.59;12256205;19;20010;-80
2022/12/19 06:11:07;;;;;;;27.05;14.15;;;0.80;55.00;;;-0.91;61.72;102283.28;12257763;19;20375;-80
2022/12/19 06:15:09;;;;;;;30.77;13.20;;;0.80;55.00;;;-0.91;61.76;102265.34;12258988;19;20013;-81
2022/12/19 06:19:11;;;;;;;26.42;12.40;;;0.90;55.20;;;-0.94;61.75;102261.03;12253696;19;20380;-80
2022/12/19 06:23:13;;;;;;;24.45;12.70;;;0.90;55.10;;;-1.01;61.78;102222.44;12249898;19;20022;-80
2022/12/19 06:27:15;;;;;;;24.05;11.43;;;0.90;55.10;;;-1.17;61.84;102180.28;12253412;19;20014;-80
2022/12/19 06:31:20;;;;;;;24.00;12.02;;;0.90;55.10;;;-0.82;61.81;102231.28;12254438;19;20018;-80
2022/12/19 06:35:21;;;;;;;27.38;13.95;;;0.80;55.10;;;-0.88;61.81;102220.94;12255508;19;20017;-80
2022/12/19 06:39:23;;;;;;;33.53;14.07;;;1.00;54.90;;;-0.92;61.70;102196.94;12255744;19;20021;-80
2022/12/19 06:43:25;;;;;;;24.42;12.57;;;1.00;55.10;;;-0.85;61.67;102196.19;12252367;19;20034;-80
2022/12/19 06:47:27;;;;;;;27.33;13.00;;;1.00;55.10;;;-0.78;61.70;102215.13;12259579;19;20014;-81
2022/12/19 06:51:29;;;;;;;26.70;12.30;;;1.00;55.00;;;-0.74;61.71;102216.88;12256788;19;20015;-82
2022/12/19 06:55:31;;;;;;;25.60;12.35;;;1.10;55.10;;;-0.69;61.71;102220.38;12256881;19;20360;-81
2022/12/19 06:59:33;;;;;;;28.27;14.00;;;1.00;55.00;;;-0.62;61.72;102223.91;12253726;19;20018;-83
2022/12/19 07:03:39;;;;;;;27.02;12.05;;;1.30;55.00;;;-0.62;61.83;102226.47;12254946;19;20014;-83
2022/12/19 07:07:41;;;;;;;25.52;11.98;;;1.40;55.30;;;-0.56;61.80;102226.56;12258756;19;20859;-83
2022/12/19 07:11:43;;;;;;;23.50;9.90;;;1.30;55.30;;;-0.58;61.86;102236.78;12270026;19;20464;-83
2022/12/19 07:15:45;;;;;;;30.30;14.50;;;1.20;55.40;;;-0.51;61.85;102245.47;12271622;19;20021;-82
2022/12/19 07:19:51;;;;;;;21.98;11.45;;;1.50;55.20;;;-0.59;61.58;102219.69;12266089;19;20018;-81
2022/12/19 07:23:54;;;;;;;19.67;9.13;;;1.20;55.30;;;-0.63;61.80;102205.06;12264195;19;20405;-82
2022/12/19 07:27:56;;;;;;;20.95;10.73;;;1.30;55.40;;;-0.57;61.72;102207.72;12253073;19;20095;-83
2022/12/19 07:31:58;;;;;;;21.35;10.70;;;1.30;55.30;;;-0.46;61.74;102226.72;12258379;19;20013;-83
2022/12/19 07:36:00;;;;;;;21.55;9.98;;;1.30;55.30;;;-0.34;61.81;102230.31;12260488;19;20013;-82
2022/12/19 07:40:02;;;;;;;22.30;11.85;;;1.40;55.40;;;-0.34;61.82;102212.34;12270615;19;20862;-82
2022/12/19 07:44:05;;;;;;;23.55;12.80;;;1.40;55.10;;;-0.27;61.79;102224.41;12270826;19;20016;-81
2022/12/19 07:48:07;;;;;;;22.50;11.38;;;1.40;55.20;;;-0.34;61.77;102214.91;12271319;19;20022;-81
2022/12/19 07:52:09;;;;;;;28.52;12.70;;;1.50;55.30;;;-0.24;61.67;102219.34;12270884;19;20018;-82
2022/12/19 07:56:11;;;;;;;21.08;10.70;;;1.50;55.10;;;-0.17;61.72;102222.84;12271435;19;20508;-82
2022/12/19 08:00:13;;;;;;;21.08;9.82;;;1.50;55.20;;;-0.11;61.64;102225.47;12267243;19;20007;-82
2022/12/19 08:04:15;;;;;;;23.02;11.10;;;1.60;55.40;;;-0.08;61.85;102228.97;12266067;19;20007;-84
2022/12/19 08:08:17;;;;;;;21.08;10.85;;;1.60;55.30;;;-0.08;61.60;102211.00;12265542;19;20364;-84
2022/12/19 08:12:19;;;;;;;25.35;11.60;;;1.70;55.40;;;0.01;61.80;102220.50;12266933;19;20014;-84
2022/12/19 08:16:24;;;;;;;20.17;10.18;;;1.70;55.40;;;0.06;61.68;102215.44;12264754;19;20086;-84
2022/12/19 08:20:26;;;;;;;25.02;11.82;;;1.80;55.40;;;0.02;61.79;102187.97;12258923;19;20014;-82
2022/12/19 08:24:29;;;;;;;23.90;12.65;;;1.80;55.30;;;0.09;61.78;102197.50;12262422;19;20019;-82
2022/12/19 08:28:35;;;;;;;20.98;9.50;;;1.80;55.30;;;0.13;61.84;102186.41;12258507;19;20007;-82
2022/12/19 08:32:37;;;;;;;24.92;12.82;;;1.90;55.50;;;-0.05;61.68;102131.44;12264561;19;20010;-82
2022/12/19 08:36:39;;;;;;;26.80;12.45;;;2.10;55.40;;;0.32;61.71;102183.19;12261227;19;20047;-81
2022/12/19 08:40:40;;;;;;;24.67;11.80;;;2.00;55.10;;;0.33;61.84;102169.50;12260536;19;20010;-82
2022/12/19 08:44:42;;;;;;;28.80;14.23;;;2.30;55.50;;;0.38;61.56;102167.84;12259094;19;20022;-82
2022/12/19 08:48:44;;;;;;;24.77;11.25;;;2.40;55.20;;;0.47;61.59;102179.06;12257965;19;20027;-81
2022/12/19 08:52:46;;;;;;;26.98;12.27;;;2.20;55.30;;;0.53;61.83;102179.13;12262930;19;20006;-82
2022/12/19 08:56:47;;;;;;;23.20;11.38;;;2.20;55.10;;;0.57;61.80;102166.31;12256469;19;20003;-82
2022/12/19 09:00:51;;;;;;;22.50;11.35;;;2.30;55.20;;;0.57;61.78;102155.19;12263243;19;20026;-81
2022/12/19 09:04:53;;;;;;;22.55;11.35;;;2.70;55.70;;;0.65;61.79;102141.56;12255493;19;20117;-81
2022/12/19 09:08:55;;;;;;;27.23;12.43;;;2.40;55.30;;;0.70;61.65;102136.44;12256990;19;20026;-82
2022/12/19 09:12:57;;;;;;;27.80;12.63;;;2.50;55.20;;;0.79;61.66;102133.94;12261154;19;20038;-82
2022/12/19 09:16:59;;;;;;;25.15;11.52;;;2.80;55.20;;;0.81;61.57;102124.53;12261228;19;20014;-82
2022/12/19 09:21:01;;;;;;;28.42;13.27;;;2.60;55.30;;;0.91;61.58;102130.59;12261052;19;20045;-81
2022/12/19 09:25:03;;;;;;;24.23;13.18;;;2.80;54.80;;;0.97;61.71;102125.50;12258892;19;20014;-81
2022/12/19 09:29:06;;;;;;;23.25;11.40;;;2.60;54.80;;;1.01;61.58;102105.81;12257506;19;20023;-82
2022/12/19 09:33:07;;;;;;;27.90;11.27;;;3.00;55.10;;;0.98;61.82;102087.78;12259005;19;20023;-82
2022/12/19 09:37:11;;;;;;;22.05;11.27;;;2.80;55.00;;;0.80;61.56;102031.97;12258137;19;20131;-81
2022/12/19 09:41:24;;;;;;;25.60;13.40;;;2.80;55.10;;;1.08;61.49;102066.41;12251083;19;20085;-82
2022/12/19 09:46:00;;;;;;;24.98;13.45;;;2.90;54.60;;;1.25;61.48;102074.25;12257828;19;20011;-82
2022/12/19 09:50:12;;;;;;;23.20;12.02;;;2.90;54.80;;;1.21;61.71;102047.59;12255490;19;20007;-81
2022/12/19 09:54:29;;;;;;;32.72;15.00;;;3.00;54.60;;;1.15;61.52;102029.56;12260481;19;20018;-82
2022/12/19 09:58:46;;;;;;;30.83;15.05;;;3.00;54.40;;;1.41;61.51;102059.72;12255527;19;20018;-82
2022/12/19 10:02:55;;;;;;;30.70;13.93;;;3.10;54.20;;;1.50;61.57;102063.19;12256724;19;20014;-82
2022/12/19 10:06:57;;;;;;;32.55;14.13;;;3.20;54.30;;;1.45;61.45;102022.84;12266353;19;20102;-82
2022/12/19 10:11:15;;;;;;;25.27;12.40;;;3.50;54.40;;;1.58;61.41;102032.31;12264595;19;20107;-82
2022/12/19 10:15:41;;;;;;;26.77;12.10;;;3.30;54.70;;;1.72;61.28;102034.94;12257436;19;20021;-82
2022/12/19 10:20:14;;;;;;;23.35;12.68;;;3.40;54.80;;;1.80;61.24;102046.13;12256887;19;20017;-81
2022/12/19 10:24:28;;;;;;;22.45;12.32;;;3.50;54.50;;;1.88;61.38;102031.53;12261520;19;20030;-80
2022/12/19 10:29:10;;;;;;;23.05;11.20;;;3.50;54.40;;;1.94;61.21;102022.97;12259516;19;20368;-81
2022/12/19 10:33:33;;;;;;;28.30;13.50;;;3.60;54.30;;;1.94;61.54;101999.78;12261425;19;20038;-80
2022/12/19 10:37:50;;;;;;;20.92;10.70;;;3.90;54.20;;;2.04;61.40;101991.19;12264536;19;20014;-81
2022/12/19 10:42:01;;;;;;;21.00;11.27;;;3.80;54.30;;;2.04;61.38;101977.47;12280370;19;20015;-81
2022/12/19 10:46:16;;;;;;;22.38;11.43;;;3.90;54.50;;;2.07;61.33;101957.72;12272480;19;20049;-80
2022/12/19 10:50:25;;;;;;;25.40;12.93;;;3.90;54.50;;;2.21;61.35;101975.72;12266367;19;20014;-81
2022/12/19 10:54:36;;;;;;;22.35;11.23;;;4.00;53.80;;;2.43;61.35;101986.88;12264555;19;20022;-82
2022/12/19 10:58:43;;;;;;;21.45;11.20;;;4.10;53.50;;;2.49;61.29;101966.28;12264467;19;20026;-82
2022/12/19 11:02:46;;;;;;;22.30;11.82;;;4.20;54.00;;;2.57;61.14;101948.22;12262538;19;20014;-81
2022/12/19 11:07:04;;;;;;;19.20;10.52;;;4.30;53.90;;;2.63;61.04;101951.63;12260221;19;20054;-81
2022/12/19 11:11:05;;;;;;;31.48;15.73;;;4.30;54.40;;;2.73;61.23;101942.16;12261514;19;20011;-81
2022/12/19 11:15:11;;;;;;;23.30;11.98;;;4.60;53.40;;;2.82;61.10;101924.06;12276187;19;20015;-80
2022/12/19 11:19:25;;;;;;;27.10;14.18;;;4.50;53.80;;;2.91;60.87;101932.63;12270668;19;20007;-82
2022/12/19 11:23:30;;;;;;;22.38;12.15;;;4.50;53.50;;;2.81;61.18;101908.59;12271263;19;20018;-82
2022/12/19 11:27:40;;;;;;;23.35;12.70;;;4.90;53.60;;;3.02;60.91;101907.63;12268234;19;20022;-81
2022/12/19 11:31:44;;;;;;;27.42;12.32;;;4.60;53.60;;;2.95;61.14;101887.91;12277974;19;20082;-81
2022/12/19 11:35:57;;;;;;;21.92;10.57;;;4.70;53.50;;;3.13;60.90;101910.16;12273001;19;20021;-80
2022/12/19 11:40:14;;;;;;;21.05;11.50;;;4.80;54.00;;;3.05;60.88;101882.69;12272407;19;20030;-81
2022/12/19 11:44:40;;;;;;;19.95;10.55;;;4.80;53.90;;;3.22;60.77;101897.22;12272531;19;20014;-81
2022/12/19 11:49:16;;;;;;;21.52;10.65;;;4.90;54.20;;;3.23;60.90;101880.84;12265030;19;20026;-81
2022/12/19 11:53:46;;;;;;;24.73;12.75;;;4.90;54.40;;;3.17;60.87;101847.34;12270465;19;20342;-81
2022/12/19 11:57:48;;;;;;;17.75;10.45;;;4.90;54.40;;;3.26;60.99;101867.91;12264106;19;20007;-81
2022/12/19 12:01:53;;;;;;;22.27;10.68;;;5.00;55.00;;;3.35;60.89;101860.13;12267661;19;20366;-82
2022/12/19 12:05:57;;;;;;;27.25;12.27;;;5.10;55.30;;;3.27;60.92;101836.94;12262988;19;20015;-82
2022/12/19 12:10:15;;;;;;;24.20;12.35;;;5.00;55.30;;;3.32;60.73;101831.72;12265642;19;20018;-82
2022/12/19 12:14:32;;;;;;;22.30;11.90;;;5.00;55.70;;;3.36;60.74;101838.59;12262915;19;20516;-82
2022/12/19 12:18:55;;;;;;;18.92;9.60;;;5.00;55.90;;;3.40;60.82;101842.84;12258578;19;20520;-82
2022/12/19 12:23:15;;;;;;;22.38;11.55;;;5.10;56.10;;;3.42;61.10;101838.53;12259485;19;20011;-82
2022/12/19 12:27:54;;;;;;;22.58;12.38;;;5.00;56.50;;;3.42;60.96;101843.72;12257973;19;20014;-82
2022/12/19 12:32:37;;;;;;;27.98;12.43;;;5.00;56.80;;;3.44;60.99;101836.81;12256238;19;20095;-82
2022/12/19 12:37:05;;;;;;;16.00;9.35;;;5.10;57.00;;;3.38;61.13;101821.38;12258395;19;20442;-82
2022/12/19 12:45:59;;;;;;;14.73;8.43;;;5.10;57.20;;;3.25;61.36;101791.38;12255129;19;20031;-84
2022/12/19 12:50:11;;;;;;;20.20;9.95;;;5.10;57.30;;;3.40;61.35;101814.47;12256034;19;20093;-82
2022/12/19 12:54:14;;;;;;;25.27;11.82;;;5.10;57.50;;;3.55;61.30;101827.25;12256257;19;20073;-82
2022/12/19 12:58:50;;;;;;;16.05;9.07;;;5.20;57.90;;;3.53;61.26;101823.81;12254217;19;20015;-83
2022/12/19 13:03:16;;;;;;;20.90;11.23;;;5.10;57.80;;;3.36;61.12;101788.69;12256395;19;20027;-82
2022/12/19 13:07:27;;;;;;;19.60;10.85;;;5.10;57.90;;;3.47;61.22;101802.38;12252744;19;20025;-82
2022/12/19 13:15:48;;;;;;;23.92;11.55;;;5.10;58.10;;;3.57;61.40;101808.31;12253806;19;20583;-84
2022/12/19 13:20:13;;;;;;;21.65;11.07;;;5.40;58.30;;;3.58;61.34;101808.28;12254415;19;20011;-82
2022/12/19 13:24:20;;;;;;;18.25;9.88;;;5.10;58.10;;;3.51;61.31;101792.00;12250711;19;20018;-83
2022/12/19 13:28:22;;;;;;;16.23;8.60;;;5.20;58.20;;;3.66;61.62;101805.66;12249935;19;20011;-82
2022/12/19 13:32:52;;;;;;;17.10;8.88;;;5.20;58.10;;;3.64;61.70;101797.06;12252047;19;20412;-82
2022/12/19 13:37:37;;;;;;;17.42;9.15;;;5.20;58.20;;;3.61;61.53;101777.28;12247709;19;20364;-82
2022/12/19 13:46:36;;;;;;;23.35;10.98;;;5.20;58.60;;;3.61;61.47;101760.94;12250738;19;20120;-82
2022/12/19 13:50:41;;;;;;;19.75;10.32;;;5.20;58.80;;;3.73;61.57;101773.75;12250888;19;20022;-82
2022/12/19 13:54:55;;;;;;;19.52;9.57;;;5.40;58.60;;;3.73;61.53;101771.16;12252668;19;20042;-81
2022/12/19 13:59:01;;;;;;;19.88;10.70;;;5.30;58.70;;;3.63;61.67;101751.44;12251374;19;20021;-81
2022/12/19 14:03:03;;;;;;;22.63;12.75;;;5.40;59.10;;;3.69;62.05;101752.22;12247929;19;20439;-82
2022/12/19 14:07:40;;;;;;;19.35;10.98;;;5.30;59.00;;;3.77;61.77;101760.75;12252845;19;20346;-82
2022/12/19 14:11:43;;;;;;;21.42;11.48;;;5.30;59.20;;;3.70;61.93;101742.75;12254041;19;20086;-82
2022/12/19 14:15:47;;;;;;;19.55;10.63;;;5.40;59.30;;;3.52;61.79;101705.06;12251765;19;20014;-82
2022/12/19 14:19:52;;;;;;;21.55;11.35;;;5.40;59.30;;;3.74;62.03;101740.13;12254307;19;20513;-82
2022/12/19 14:24:22;;;;;;;22.63;11.32;;;5.40;59.70;;;3.72;61.70;101723.78;12252481;19;19999;-82
2022/12/19 14:28:39;;;;;;;22.02;11.90;;;5.40;59.60;;;3.74;62.03;101739.28;12251729;19;20019;-83
2022/12/19 14:32:41;;;;;;;22.42;10.45;;;5.40;59.60;;;3.91;62.17;101759.75;12252003;19;20022;-82
2022/12/19 14:36:53;;;;;;;19.98;10.63;;;5.40;59.40;;;3.85;61.75;101740.00;12252697;19;20347;-82
2022/12/19 14:40:55;;;;;;;18.45;9.85;;;5.40;59.50;;;3.93;62.18;101747.69;12253174;19;20033;-83
2022/12/19 14:44:57;;;;;;;14.23;8.35;;;5.50;59.40;;;3.97;62.10;101749.38;12245573;19;20018;-82
2022/12/19 14:49:02;;;;;;;15.45;9.10;;;5.50;59.30;;;4.04;61.99;101755.31;12245486;19;20902;-83
2022/12/19 14:53:19;;;;;;;17.65;9.57;;;5.50;59.30;;;4.04;62.09;101756.16;12250142;19;20524;-82
2022/12/19 14:57:23;;;;;;;19.98;10.88;;;5.60;59.70;;;4.02;61.98;101744.13;12256012;19;20022;-82
2022/12/19 15:01:33;;;;;;;19.00;10.13;;;5.60;59.60;;;4.03;62.08;101743.28;12252656;19;20031;-82
2022/12/19 15:05:35;;;;;;;16.85;9.85;;;5.60;59.60;;;3.87;62.13;101709.00;12255834;19;20010;-82
2022/12/19 15:09:49;;;;;;;15.02;8.45;;;5.80;59.60;;;4.14;61.94;101741.41;12254171;19;20046;-82
2022/12/19 15:13:57;;;;;;;19.15;10.15;;;5.60;59.50;;;4.09;62.19;101736.28;12259227;19;20007;-82
2022/12/19 15:17:58;;;;;;;20.55;9.52;;;5.70;59.80;;;4.13;62.22;101719.00;12250948;19;20027;-82
2022/12/19 15:22:00;;;;;;;19.50;9.35;;;5.70;59.70;;;4.16;62.13;101725.00;12255108;19;20078;-82
2022/12/19 15:26:10;;;;;;;18.02;9.25;;;5.70;59.80;;;4.16;62.06;101716.41;12255077;19;20037;-82
2022/12/19 15:30:19;;;;;;;17.55;9.93;;;5.80;59.70;;;4.01;62.12;101681.25;12255119;19;20620;-82
2022/12/19 15:34:28;;;;;;;18.27;10.30;;;5.80;59.80;;;4.30;62.18;101724.84;12255729;19;20070;-82
2022/12/19 15:38:30;;;;;;;20.48;11.30;;;5.80;59.70;;;4.34;62.17;101729.06;12251740;19;20044;-82
2022/12/19 15:42:33;;;;;;;23.20;11.73;;;5.80;59.80;;;4.31;62.35;101715.34;12253775;19;20035;-82
2022/12/19 15:46:35;;;;;;;18.33;9.50;;;5.80;59.90;;;4.41;62.25;101727.28;12251535;19;20070;-82
2022/12/19 15:50:37;;;;;;;17.33;8.93;;;6.20;60.00;;;4.43;62.36;101726.38;12251944;19;20030;-82
2022/12/19 15:54:39;;;;;;;18.08;9.68;;;5.90;59.90;;;4.23;62.46;101687.00;12250293;19;20012;-82
2022/12/19 15:58:41;;;;;;;17.40;9.73;;;5.90;60.30;;;4.34;62.26;101699.78;12257655;19;20089;-82
2022/12/19 16:02:43;;;;;;;17.38;10.93;;;6.00;60.60;;;4.52;62.49;101715.03;12259161;19;20359;-82
2022/12/19 16:06:45;;;;;;;21.80;12.07;;;6.00;60.80;;;4.53;62.38;101700.38;12262429;19;20058;-82
2022/12/19 16:10:53;;;;;;;17.33;9.88;;;6.00;60.90;;;4.55;62.45;101701.22;12258774;19;20496;-82
2022/12/19 16:14:59;;;;;;;15.30;9.05;;;6.10;60.40;;;4.53;62.58;101685.72;12260716;19;20027;-83
2022/12/19 16:19:01;;;;;;;17.30;9.20;;;6.10;60.40;;;4.52;62.53;101680.56;12258557;19;20018;-82
2022/12/19 16:23:02;;;;;;;20.90;11.43;;;6.30;60.40;;;4.68;62.41;101688.97;12260900;19;20014;-82
2022/12/19 16:27:05;;;;;;;18.27;10.27;;;6.20;61.50;;;4.62;62.69;101674.41;12257785;19;20046;-82
2022/12/19 16:31:15;;;;;;;15.35;8.45;;;6.20;61.00;;;4.68;62.48;101689.81;12259122;19;20385;-82
2022/12/19 16:35:22;;;;;;;17.67;8.93;;;6.20;60.60;;;4.72;62.74;101685.44;12257248;19;20017;-82
2022/12/19 16:39:24;;;;;;;15.95;9.30;;;6.20;60.80;;;4.63;62.72;101665.75;12261712;19;20042;-83
2022/12/19 16:43:37;;;;;;;15.57;8.73;;;6.30;60.80;;;4.77;62.65;101686.22;12259366;19;20476;-83
2022/12/19 16:47:39;;;;;;;16.15;7.68;;;6.30;61.00;;;4.85;62.58;101686.97;12255279;19;20022;-81
2022/12/19 16:51:41;;;;;;;10.48;6.60;;;6.50;60.70;;;4.84;62.76;101683.53;12260519;19;20018;-82
2022/12/19 16:55:45;;;;;;;14.65;8.20;;;6.40;60.50;;;4.92;62.66;101692.91;12255767;19;20030;-82
2022/12/19 16:59:48;;;;;;;12.07;6.82;;;6.40;60.50;;;4.69;62.61;101646.69;12255665;19;20460;-82
2022/12/19 17:03:50;;;;;;;14.15;8.43;;;6.40;60.40;;;4.88;62.69;101673.97;12257178;19;20021;-83
2022/12/19 17:07:53;;;;;;;13.73;7.47;;;6.50;60.60;;;5.00;62.66;101691.91;12252748;19;20352;-82
2022/12/19 17:12:00;;;;;;;12.73;6.38;;;6.60;60.60;;;4.94;62.79;101671.31;12258113;19;20018;-82
2022/12/19 17:16:03;;;;;;;11.35;6.68;;;6.50;60.40;;;4.94;62.79;101653.19;12253635;19;20061;-82